Time;durP1;ratioP1;P1;durP2;ratioP2;P2;SDS_P1;SDS_P2;PMS_P1;PMS_P2;Temp;Humidity;BMP_temperature;BMP_pressure;BME280_temperature;BME280_humidity;BME280_pressure;Samples;Min_cycle;Max_cycle;Signal;HPM_P1;HPM_P2
2021/01/22 09:06:17;;;;;;;2.40;1.37;;;;;;;11.31;65.10;96622.13;5149130;27;20543;-82
2021/01/22 09:08:54;;;;;;;4.57;1.27;;;;;;;11.85;63.08;96621.81;5114147;27;40037;-82
2021/01/22 09:11:35;;;;;;;5.33;1.20;;;;;;;12.22;62.02;96596.78;5113581;27;41161;-82
2021/01/22 09:14:02;;;;;;;3.37;1.40;;;;;;;12.96;60.42;96643.72;5125900;27;41784;-84
2021/01/22 09:16:29;;;;;;;3.23;1.20;;;;;;;13.17;58.95;96625.47;5111558;27;40999;-83
2021/01/22 09:18:59;;;;;;;3.37;1.33;;;;;;;13.22;58.36;96617.84;5129194;27;40108;-81
2021/01/22 09:21:27;;;;;;;1.87;1.03;;;;;;;13.54;57.00;96650.72;5112981;27;40847;-83
2021/01/22 09:23:54;;;;;;;4.10;1.40;;;;;;;13.53;57.44;96646.38;5129540;27;42672;-82
2021/01/22 09:26:24;;;;;;;1.50;0.90;;;;;;;13.53;56.25;96641.06;5148150;27;42619;-84
2021/01/22 09:28:51;;;;;;;3.67;1.30;;;;;;;13.41;56.50;96614.00;5130344;27;40174;-85
2021/01/22 09:31:19;;;;;;;2.80;0.97;;;;;;;13.75;56.07;96656.31;5109403;27;41713;-82
2021/01/22 09:33:47;;;;;;;2.53;1.40;;;;;;;13.63;55.70;96636.38;5109616;27;42468;-81
2021/01/22 09:36:17;;;;;;;2.77;1.00;;;;;;;13.61;55.78;96630.41;5132874;27;42122;-91
2021/01/22 09:38:45;;;;;;;2.77;1.00;;;;;;;13.78;55.83;96655.16;5113225;27;39408;-84
2021/01/22 09:41:12;;;;;;;3.23;1.20;;;;;;;13.74;55.49;96657.31;5113260;27;40780;-81
2021/01/22 09:43:40;;;;;;;3.87;1.30;;;;;;;13.51;55.49;96632.44;5130442;27;42686;-89
2021/01/22 09:46:07;;;;;;;3.20;1.10;;;;;;;13.67;55.58;96651.03;5112489;27;42415;-80
2021/01/22 09:48:34;;;;;;;4.50;1.37;;;;;;;13.83;54.77;96664.31;5130047;27;40089;-83
2021/01/22 09:51:01;;;;;;;3.43;1.50;;;;;;;13.94;54.87;96658.63;5147344;27;41382;-82
2021/01/22 09:53:28;;;;;;;3.10;1.60;;;;;;;13.86;54.72;96637.34;5113027;27;42242;-85
2021/01/22 09:55:56;;;;;;;2.63;0.83;;;;;;;14.05;55.16;96651.28;5112290;27;41727;-85
2021/01/22 09:58:23;;;;;;;3.70;1.87;;;;;;;14.05;54.04;96652.09;5113691;27;39337;-86
2021/01/22 10:00:50;;;;;;;2.33;1.43;;;;;;;13.61;54.27;96590.53;5128880;27;40603;-85
2021/01/22 10:03:17;;;;;;;3.53;1.93;;;;;;;14.02;54.23;96653.25;5112943;27;41777;-82
2021/01/22 10:05:45;;;;;;;4.03;1.17;;;;;;;14.11;54.63;96650.56;5147292;27;43081;-80
2021/01/22 10:08:12;;;;;;;4.73;1.70;;;;;;;14.31;53.54;96659.81;5130188;27;39131;-83
2021/01/22 10:10:39;;;;;;;2.67;1.13;;;;;;;14.37;53.46;96653.78;5129333;27;41892;-82
2021/01/22 10:13:07;;;;;;;2.97;1.13;;;;;;;14.56;53.34;96655.25;5129745;27;42729;-89
2021/01/22 10:15:34;;;;;;;4.40;1.33;;;;;;;14.71;52.73;96648.19;5127270;27;42342;-89
2021/01/22 10:18:02;;;;;;;3.93;1.50;;;;;;;15.07;52.06;96659.94;5115319;27;39794;-84
2021/01/22 10:20:29;;;;;;;3.27;1.30;;;;;;;15.43;50.44;96675.31;5116172;27;41685;-81
2021/01/22 10:22:56;;;;;;;3.10;1.47;;;;;;;15.86;49.95;96676.44;5132788;27;42747;-84
2021/01/22 10:25:23;;;;;;;4.10;2.50;;;;;;;16.63;48.24;96674.28;5098250;27;40811;-83
2021/01/22 10:27:50;;;;;;;4.83;2.60;;;;;;;17.53;46.07;96709.41;5115555;27;39281;-85
2021/01/22 10:30:19;;;;;;;3.23;1.30;;;;;;;17.92;45.65;96700.09;5132751;27;42553;-86
2021/01/22 10:32:46;;;;;;;4.33;1.33;;;;;;;18.67;42.97;96696.66;5115883;27;41378;-90
2021/01/22 10:35:14;;;;;;;3.27;1.40;;;;;;;19.37;41.33;96709.72;5098799;27;41638;-85
2021/01/22 10:37:41;;;;;;;4.90;1.70;;;;;;;19.42;41.50;96709.06;5132222;27;41055;-82
2021/01/22 10:40:11;;;;;;;4.10;1.40;;;;;;;18.97;42.25;96679.25;5098293;27;41894;-81
2021/01/22 10:42:38;;;;;;;2.97;1.10;;;;;;;18.75;41.32;96739.41;5098618;27;41909;-86
2021/01/22 10:45:06;;;;;;;3.00;1.17;;;;;;;17.88;43.26;96690.78;5099011;27;42184;-84
2021/01/22 10:47:34;;;;;;;3.40;1.23;;;;;;;18.43;43.30;96699.78;5098444;27;38508;-86
2021/01/22 10:50:03;;;;;;;3.33;1.40;;;;;;;17.99;43.37;96702.81;5098796;27;41960;-85
2021/01/22 10:52:31;;;;;;;2.70;1.23;;;;;;;17.45;44.65;96698.81;5098491;27;42269;-81
2021/01/22 10:55:01;;;;;;;3.50;1.10;;;;;;;16.60;45.79;96663.09;5097952;27;42004;-85
2021/01/22 10:57:28;;;;;;;3.33;1.27;;;;;;;16.33;46.96;96692.13;5098784;27;38784;-85
2021/01/22 10:59:55;;;;;;;1.77;1.00;;;;;;;15.99;48.05;96691.84;5115637;27;41030;-85
2021/01/22 11:02:23;;;;;;;2.77;1.20;;;;;;;15.64;48.96;96688.00;5116963;27;42966;-85
2021/01/22 11:04:51;;;;;;;4.03;1.27;;;;;;;15.25;49.86;96648.97;5134774;27;42105;-82
2021/01/22 11:07:18;;;;;;;4.13;1.30;;;;;;;15.11;50.96;96681.72;5121519;27;39926;-83
2021/01/22 11:09:46;;;;;;;3.87;1.10;;;;;;;14.80;52.38;96678.25;5115054;27;40964;-83
2021/01/22 11:12:14;;;;;;;1.43;1.13;;;;;;;14.51;53.54;96669.06;5132394;27;42731;-87
2021/01/22 11:14:45;;;;;;;1.00;0.70;;;;;;;14.05;54.26;96662.75;5115936;27;41172;-86
2021/01/22 11:17:13;;;;;;;1.50;1.00;;;;;;;13.65;54.72;96648.53;5116419;27;40632;-82
2021/01/22 11:19:40;;;;;;;1.27;0.90;;;;;;;13.36;55.24;96668.66;5114853;27;40606;-83
2021/01/22 11:22:08;;;;;;;1.13;0.70;;;;;;;12.69;56.65;96631.56;5132831;27;42879;-84
2021/01/22 11:24:37;;;;;;;1.43;0.80;;;;;;;12.67;57.58;96653.94;5097551;27;42598;-82
2021/01/22 11:27:04;;;;;;;2.07;0.70;;;;;;;12.42;58.23;96656.53;5113879;27;38886;-82
2021/01/22 11:29:32;;;;;;;1.43;0.70;;;;;;;12.36;58.67;96673.13;5097352;27;40909;-84
2021/01/22 11:31:59;;;;;;;0.70;0.60;;;;;;;11.99;58.85;96640.78;5097748;27;42397;-83
2021/01/22 11:34:26;;;;;;;0.60;0.50;;;;;;;11.97;58.99;96653.38;5115863;27;40889;-88
2021/01/22 11:36:55;;;;;;;0.60;0.50;;;;;;;11.54;59.47;96617.97;5118485;27;39153;-88
2021/01/22 11:39:24;;;;;;;0.60;0.60;;;;;;;11.69;59.73;96671.25;5117368;27;40738;-82
2021/01/22 11:41:55;;;;;;;0.60;0.60;;;;;;;11.61;60.11;96677.34;5098085;27;42187;-85
2021/01/22 11:44:22;;;;;;;0.83;0.70;;;;;;;11.31;60.90;96685.69;5100103;27;40979;-82
2021/01/22 11:46:49;;;;;;;0.73;0.50;;;;;;;11.19;61.26;96693.06;5116528;27;39114;-90
2021/01/22 11:49:16;;;;;;;0.50;0.50;;;;;;;11.04;61.91;96663.63;5097856;27;40408;-87
2021/01/22 11:51:43;;;;;;;0.93;0.60;;;;;;;10.84;62.27;96714.25;5096522;27;41670;-84
2021/01/22 11:54:11;;;;;;;0.50;0.50;;;;;;;10.69;62.59;96690.09;5097074;27;41790;-83
2021/01/22 11:56:39;;;;;;;0.60;0.60;;;;;;;10.48;62.62;96674.50;5132191;27;39698;-90
2021/01/22 11:59:08;;;;;;;0.80;0.80;;;;;;;10.43;62.87;96688.16;5113739;27;42603;-85
2021/01/22 12:01:35;;;;;;;2.80;1.03;;;;;;;10.37;63.44;96704.63;5096486;27;42963;-85
2021/01/22 12:04:02;;;;;;;1.93;1.43;;;;;;;10.30;63.45;96703.53;5131048;27;42892;-84
2021/01/22 12:06:29;;;;;;;0.90;0.63;;;;;;;10.15;63.56;96691.75;5114212;27;40175;-84
2021/01/22 12:08:57;;;;;;;0.70;0.70;;;;;;;10.15;63.49;96712.06;5114337;27;40983;-80
2021/01/22 12:11:24;;;;;;;1.00;0.90;;;;;;;9.90;63.73;96692.41;5131491;27;43651;-86
2021/01/22 12:13:52;;;;;;;1.57;1.17;;;;;;;9.84;63.65;96700.91;5131468;27;41933;-81
2021/01/22 12:16:19;;;;;;;1.37;1.00;;;;;;;9.88;64.34;96731.38;5131788;27;40668;-86
2021/01/22 12:18:46;;;;;;;0.67;0.60;;;;;;;9.63;64.46;96701.97;5113504;27;42156;-83
2021/01/22 12:21:13;;;;;;;0.60;0.50;;;;;;;9.62;64.22;96704.72;5097323;27;42893;-80
2021/01/22 12:23:41;;;;;;;0.80;0.80;;;;;;;9.69;64.48;96722.50;5131802;27;42566;-79
2021/01/22 12:26:09;;;;;;;0.60;0.60;;;;;;;9.47;64.36;96696.41;5096471;27;38977;-82
2021/01/22 12:28:36;;;;;;;0.50;0.50;;;;;;;9.50;64.49;96743.69;5115770;27;41028;-83
2021/01/22 12:31:05;;;;;;;0.97;0.90;;;;;;;9.29;64.36;96727.97;5095957;27;41712;-84
2021/01/22 12:33:33;;;;;;;0.50;0.50;;;;;;;9.17;64.32;96720.34;5114022;27;41885;-83
2021/01/22 12:36:00;;;;;;;0.60;0.60;;;;;;;9.30;64.67;96731.47;5113974;27;40532;-82
2021/01/22 12:38:27;;;;;;;1.00;0.80;;;;;;;9.19;64.92;96723.69;5111727;27;42449;-86
2021/01/22 12:40:54;;;;;;;0.77;0.70;;;;;;;9.24;64.52;96742.59;5126592;27;42909;-81
2021/01/22 12:43:22;;;;;;;0.87;0.70;;;;;;;9.19;64.62;96740.34;5093359;28;42176;-79
2021/01/22 12:45:49;;;;;;;1.00;0.63;;;;;;;9.11;65.16;96734.94;5110932;27;39684;-82
2021/01/22 12:48:17;;;;;;;0.60;0.60;;;;;;;9.05;65.09;96726.72;5126856;27;42040;-85
2021/01/22 12:50:44;;;;;;;0.67;0.67;;;;;;;9.10;65.38;96743.00;5096226;27;42903;-80
2021/01/22 12:53:12;;;;;;;0.70;0.70;;;;;;;9.09;65.50;96739.53;5113440;27;42548;-80
2021/01/22 12:55:40;;;;;;;0.60;0.60;;;;;;;8.97;65.68;96741.47;5130898;27;39942;-85
2021/01/22 12:58:07;;;;;;;1.13;0.90;;;;;;;8.86;65.92;96738.13;5094708;27;41842;-82
2021/01/22 13:00:36;;;;;;;0.93;0.70;;;;;;;8.74;66.52;96729.50;5112733;27;42471;-81
2021/01/22 13:03:03;;;;;;;1.03;0.83;;;;;;;8.73;65.88;96750.72;5076281;28;41432;-82
2021/01/22 13:05:31;;;;;;;0.70;0.70;;;;;;;8.55;66.21;96740.81;5092815;28;39664;-80
2021/01/22 13:07:58;;;;;;;0.97;0.87;;;;;;;8.49;66.20;96748.47;5119146;27;42060;-84
2021/01/22 13:10:26;;;;;;;1.00;0.60;;;;;;;8.51;66.26;96763.19;5113507;27;41884;-83
2021/01/22 13:12:53;;;;;;;0.83;0.80;;;;;;;8.47;66.66;96760.94;5130364;27;41798;-83
2021/01/22 13:15:20;;;;;;;0.70;0.70;;;;;;;8.41;66.20;96761.47;5112478;27;40743;-83
2021/01/22 13:17:47;;;;;;;0.90;0.57;;;;;;;8.43;66.16;96773.56;5113057;27;41320;-86
2021/01/22 13:20:14;;;;;;;0.60;0.60;;;;;;;8.33;66.37;96766.56;5097190;27;42112;-81
2021/01/22 13:22:42;;;;;;;0.50;0.50;;;;;;;8.32;66.47;96788.63;5130352;27;41997;-78
2021/01/22 13:25:10;;;;;;;6.30;3.57;;;;;;;8.22;66.78;96781.50;5130481;27;39904;-84
2021/01/22 13:27:38;;;;;;;1.63;0.97;;;;;;;8.04;66.87;96776.94;5111893;27;40716;-81
2021/01/22 13:30:06;;;;;;;1.53;0.70;;;;;;;8.00;67.12;96775.56;5096429;27;41726;-85
2021/01/22 13:32:33;;;;;;;0.67;0.60;;;;;;;8.06;67.25;96793.47;5112636;27;40904;-82
2021/01/22 13:35:00;;;;;;;0.70;0.50;;;;;;;7.92;67.38;96773.56;5112742;27;39708;-80
2021/01/22 13:37:28;;;;;;;0.53;0.50;;;;;;;7.91;67.28;96782.47;5112609;27;40841;-81
2021/01/22 13:39:56;;;;;;;0.60;0.60;;;;;;;7.76;67.22;96763.50;5130135;27;43275;-80
2021/01/22 13:42:24;;;;;;;1.87;0.60;;;;;;;7.87;67.05;96792.41;5095722;27;41171;-81
2021/01/22 13:44:51;;;;;;;0.40;0.40;;;;;;;7.93;66.93;96801.59;5128393;27;40463;-82
2021/01/22 13:47:18;;;;;;;0.30;0.30;;;;;;;7.94;66.73;96813.81;5094186;27;40982;-80
2021/01/22 13:49:46;;;;;;;0.87;0.60;;;;;;;7.89;66.94;96800.19;5095658;27;41891;-80
2021/01/22 13:52:13;;;;;;;0.57;0.50;;;;;;;7.88;66.87;96812.53;5130453;27;41961;-85
2021/01/22 13:54:41;;;;;;;0.50;0.50;;;;;;;7.88;67.11;96819.59;5078718;28;39269;-80
2021/01/22 13:57:10;;;;;;;1.03;0.70;;;;;;;7.94;68.18;96812.00;5107356;27;42348;-80
2021/01/22 13:59:37;;;;;;;1.00;0.53;;;;;;;7.98;67.74;96809.94;5115458;27;42928;-82
2021/01/22 14:02:04;;;;;;;1.00;0.90;;;;;;;8.06;68.16;96810.13;5116182;27;41418;-81
2021/01/22 14:04:31;;;;;;;0.97;0.80;;;;;;;8.16;69.00;96813.66;5098707;27;39897;-80
2021/01/22 14:06:58;;;;;;;0.60;0.53;;;;;;;8.21;68.54;96819.38;5115116;27;42589;-81
2021/01/22 14:09:28;;;;;;;1.30;0.73;;;;;;;8.22;68.94;96826.31;5099071;27;41796;-81
2021/01/22 14:11:55;;;;;;;0.60;0.60;;;;;;;8.20;68.51;96820.34;5114753;27;42224;-79
2021/01/22 14:14:23;;;;;;;1.13;0.57;;;;;;;8.21;68.80;96827.28;5115240;27;40740;-82
2021/01/22 14:16:50;;;;;;;1.33;0.90;;;;;;;7.96;68.77;96796.06;5133158;27;41468;-83
2021/01/22 14:19:20;;;;;;;0.70;0.70;;;;;;;8.05;68.65;96821.63;5115813;27;42760;-80
2021/01/22 14:21:47;;;;;;;0.80;0.80;;;;;;;8.00;68.94;96818.56;5141331;27;42293;-80
2021/01/22 14:24:14;;;;;;;1.50;0.80;;;;;;;7.70;68.56;96773.72;5167293;27;40687;-79
2021/01/22 14:26:43;;;;;;;0.80;0.80;;;;;;;7.73;69.15;96789.25;5122791;27;41283;-79
2021/01/22 14:29:12;;;;;;;0.67;0.67;;;;;;;7.79;68.83;96812.47;5111871;27;41686;-83
2021/01/22 14:31:40;;;;;;;1.30;1.10;;;;;;;7.68;68.98;96813.34;5108942;28;41202;-79
2021/01/22 14:34:07;;;;;;;0.90;0.90;;;;;;;7.80;69.10;96835.19;5113941;27;38639;-80
2021/01/22 14:36:35;;;;;;;2.13;1.70;;;;;;;7.64;69.27;96816.38;5122976;27;40852;-80
2021/01/22 14:39:04;;;;;;;2.00;1.73;;;;;;;7.64;69.00;96826.91;5099944;27;41655;-81
2021/01/22 14:41:31;;;;;;;1.83;1.10;;;;;;;7.59;69.60;96814.13;5118172;27;42265;-84
2021/01/22 14:43:59;;;;;;;1.07;0.97;;;;;;;7.56;69.99;96828.38;5118028;27;40809;-81
2021/01/22 14:46:26;;;;;;;1.37;1.10;;;;;;;7.57;69.91;96848.47;5133911;27;41850;-80
2021/01/22 14:48:55;;;;;;;2.60;1.27;;;;;;;7.54;70.16;96837.38;5098251;27;42542;-78
2021/01/22 14:51:22;;;;;;;1.00;0.90;;;;;;;7.50;70.49;96844.69;5115624;27;41407;-80
2021/01/22 14:53:49;;;;;;;0.50;0.50;;;;;;;7.45;70.61;96853.91;5097435;27;38415;-78
2021/01/22 14:56:16;;;;;;;0.63;0.63;;;;;;;7.38;70.47;96848.34;5097972;27;40636;-83
2021/01/22 14:58:43;;;;;;;0.93;0.70;;;;;;;7.27;70.92;96835.22;5115134;27;41985;-82
2021/01/22 15:01:10;;;;;;;1.23;0.70;;;;;;;7.34;70.81;96851.34;5097283;27;41728;-82
2021/01/22 15:03:38;;;;;;;0.87;0.70;;;;;;;7.17;71.34;96847.47;5113426;27;39865;-82
2021/01/22 15:06:06;;;;;;;1.30;1.10;;;;;;;7.14;71.86;96834.53;5097504;27;41378;-85
2021/01/22 15:08:34;;;;;;;2.77;1.40;;;;;;;7.12;71.99;96847.81;5098369;27;42006;-82
2021/01/22 15:11:01;;;;;;;2.90;1.97;;;;;;;7.02;71.98;96830.25;5114248;27;41121;-84
2021/01/22 15:13:28;;;;;;;4.13;2.63;;;;;;;6.99;72.17;96838.41;5114640;27;40384;-81
2021/01/22 15:15:55;;;;;;;4.03;2.73;;;;;;;7.01;72.55;96845.22;5114037;27;41685;-84
2021/01/22 15:18:23;;;;;;;12.30;7.77;;;;;;;6.91;72.16;96830.28;5098226;27;43181;-84
2021/01/22 15:20:50;;;;;;;16.73;10.40;;;;;;;6.96;72.79;96844.72;5113493;27;42684;-80
2021/01/22 15:23:18;;;;;;;7.23;4.23;;;;;;;6.95;72.96;96847.47;5097903;27;39202;-84
2021/01/22 15:25:45;;;;;;;8.80;6.10;;;;;;;6.90;73.37;96850.50;5097706;27;40968;-82
2021/01/22 15:28:12;;;;;;;3.93;2.83;;;;;;;6.76;73.61;96843.69;5114093;27;42820;-80
2021/01/22 15:30:39;;;;;;;4.27;1.83;;;;;;;6.70;73.51;96832.81;5131375;27;42030;-82
2021/01/22 15:33:07;;;;;;;3.77;2.20;;;;;;;6.52;73.67;96808.00;5114184;27;40636;-81
2021/01/22 15:35:34;;;;;;;2.60;2.00;;;;;;;6.66;73.64;96831.41;5114753;27;40918;-83
2021/01/22 15:38:01;;;;;;;3.83;2.80;;;;;;;6.73;74.12;96846.56;5113579;27;43567;-82
2021/01/22 15:40:29;;;;;;;3.43;2.70;;;;;;;6.57;73.87;96826.84;5113543;27;41274;-80
2021/01/22 15:42:56;;;;;;;2.60;2.17;;;;;;;6.68;74.09;96840.81;5130961;27;40385;-80
2021/01/22 15:45:23;;;;;;;2.37;2.00;;;;;;;6.68;73.83;96848.72;5097525;27;40775;-80
2021/01/22 15:47:50;;;;;;;2.40;1.90;;;;;;;6.66;74.08;96850.66;5097187;27;41724;-86
2021/01/22 15:50:19;;;;;;;2.43;2.17;;;;;;;6.33;73.77;96798.06;5114151;27;42714;-81
2021/01/22 15:52:46;;;;;;;1.53;1.43;;;;;;;6.39;73.76;96811.56;5112658;27;39780;-83
2021/01/22 15:55:13;;;;;;;2.00;1.30;;;;;;;6.63;74.15;96850.88;5096291;27;41908;-83
2021/01/22 15:57:41;;;;;;;7.50;4.93;;;;;;;6.49;74.18;96837.97;5130468;27;42866;-83
2021/01/22 16:00:11;;;;;;;9.60;6.67;;;;;;;6.46;74.84;96830.31;5092401;28;40978;-82
2021/01/22 16:02:42;;;;;;;7.30;4.80;;;;;;;6.40;74.95;96820.31;5091985;28;40527;-84
2021/01/22 16:05:11;;;;;;;7.70;2.37;;;;;;;6.47;75.97;96845.97;5118247;27;42363;-79
2021/01/22 16:07:38;;;;;;;6.93;2.10;;;;;;;6.43;76.43;96854.22;5128878;27;42376;-83
2021/01/22 16:10:07;;;;;;;1.73;1.40;;;;;;;6.41;76.31;96853.53;5111680;27;41323;-83
2021/01/22 16:12:34;;;;;;;2.67;1.73;;;;;;;6.39;76.65;96858.06;5129502;27;38784;-79
2021/01/22 16:15:02;;;;;;;2.63;1.73;;;;;;;6.14;76.20;96817.06;5109300;27;42282;-82
2021/01/22 16:17:30;;;;;;;3.27;2.33;;;;;;;6.41;76.11;96862.25;5131052;27;43125;-81
2021/01/22 16:19:57;;;;;;;3.73;3.03;;;;;;;6.43;76.44;96870.00;5113183;27;41962;-82
2021/01/22 16:22:25;;;;;;;4.93;3.27;;;;;;;6.39;76.59;96879.09;5131453;27;39660;-84
2021/01/22 16:24:51;;;;;;;6.70;4.90;;;;;;;6.34;76.99;96897.00;5130616;27;41594;-82
2021/01/22 16:27:19;;;;;;;4.27;3.87;;;;;;;6.20;77.41;96879.66;5114079;27;41793;-81
2021/01/22 16:29:46;;;;;;;5.63;3.00;;;;;;;6.26;77.56;96900.22;5130857;27;42265;-79
